Time;durP1;ratioP1;P1;durP2;ratioP2;P2;SDS_P1;SDS_P2;PMS_P1;PMS_P2;Temp;Humidity;BMP_temperature;BMP_pressure;BME280_temperature;BME280_humidity;BME280_pressure;Samples;Min_cycle;Max_cycle;Signal;HPM_P1;HPM_P2
2021/07/24 00:00:44;;;;;;;16.08;9.20;;;20.10;81.10;;;;;;6217965;23;19997;-72
2021/07/24 00:03:09;;;;;;;16.35;9.13;;;20.20;81.00;;;;;;6219274;23;20004;-73
2021/07/24 00:05:35;;;;;;;14.70;9.40;;;20.20;80.70;;;;;;6219756;23;20004;-73
2021/07/24 00:08:00;;;;;;;15.80;10.13;;;20.20;80.70;;;;;;6219610;23;20279;-72
2021/07/24 00:10:26;;;;;;;17.42;9.93;;;20.20;80.80;;;;;;6219631;23;20001;-74
2021/07/24 00:12:54;;;;;;;20.10;10.38;;;20.20;80.90;;;;;;6219631;23;20083;-72
2021/07/24 00:15:20;;;;;;;15.90;9.55;;;20.20;80.90;;;;;;6217891;23;20006;-72
2021/07/24 00:17:46;;;;;;;17.08;9.90;;;20.10;81.10;;;;;;6193560;23;20080;-73
2021/07/24 00:20:12;;;;;;;16.38;9.98;;;20.10;81.10;;;;;;6219242;23;20012;-73
2021/07/24 00:22:37;;;;;;;16.27;9.55;;;20.10;81.00;;;;;;6219750;23;20000;-73
2021/07/24 00:25:03;;;;;;;17.08;9.90;;;20.10;81.20;;;;;;6219042;23;20004;-73
2021/07/24 00:27:29;;;;;;;15.45;9.38;;;20.00;81.20;;;;;;6219135;23;20027;-73
2021/07/24 00:29:54;;;;;;;15.52;9.85;;;20.00;81.30;;;;;;6218041;23;20091;-73
2021/07/24 00:32:23;;;;;;;17.30;9.75;;;20.00;81.40;;;;;;6219294;23;20079;-73
2021/07/24 00:34:48;;;;;;;18.13;10.45;;;20.00;81.10;;;;;;6218958;23;20055;-73
2021/07/24 00:37:18;;;;;;;17.08;9.48;;;20.00;81.00;;;;;;6218974;23;20000;-72
2021/07/24 00:39:44;;;;;;;18.67;10.65;;;20.10;81.20;;;;;;6218701;23;19992;-73
2021/07/24 00:42:24;;;;;;;16.35;9.70;;;20.00;81.10;;;;;;6218525;23;20000;-73
2021/07/24 00:44:52;;;;;;;15.82;9.65;;;20.00;81.10;;;;;;6191931;23;20324;-73
2021/07/24 00:47:27;;;;;;;18.15;10.20;;;20.00;81.40;;;;;;6218612;23;20012;-72
2021/07/24 00:49:56;;;;;;;16.40;9.40;;;20.00;81.30;;;;;;6219352;23;20003;-72
2021/07/24 00:52:21;;;;;;;20.05;9.90;;;19.90;81.60;;;;;;6218549;23;20366;-73
2021/07/24 00:54:47;;;;;;;15.57;9.73;;;19.90;81.60;;;;;;6218894;23;20007;-72
2021/07/24 00:57:15;;;;;;;17.85;10.10;;;19.90;81.60;;;;;;6192723;23;20005;-72
2021/07/24 00:59:41;;;;;;;16.10;10.10;;;19.90;81.80;;;;;;6217639;23;20016;-74
2021/07/24 01:02:09;;;;;;;17.58;9.38;;;19.80;81.70;;;;;;6218739;23;20338;-73
2021/07/24 01:04:35;;;;;;;16.95;10.07;;;19.80;81.80;;;;;;6219151;23;20005;-73
2021/07/24 01:07:09;;;;;;;17.42;10.15;;;19.80;81.80;;;;;;6218791;23;20004;-73
2021/07/24 01:09:34;;;;;;;18.73;10.32;;;19.80;81.60;;;;;;6218934;23;20008;-73
2021/07/24 01:12:04;;;;;;;16.55;9.88;;;19.80;81.70;;;;;;6218788;23;20540;-72
2021/07/24 01:14:31;;;;;;;17.05;10.02;;;19.80;81.80;;;;;;6217579;23;20011;-72
2021/07/24 01:16:57;;;;;;;16.05;9.50;;;19.90;81.20;;;;;;6218715;23;20001;-73
2021/07/24 01:19:24;;;;;;;16.98;9.73;;;20.00;80.70;;;;;;6218418;23;20001;-73
2021/07/24 01:21:50;;;;;;;17.95;9.43;;;20.10;80.40;;;;;;6192679;23;20009;-72
2021/07/24 01:24:15;;;;;;;19.67;10.38;;;20.10;80.50;;;;;;6218408;23;20007;-72
2021/07/24 01:26:44;;;;;;;16.75;9.45;;;20.10;80.20;;;;;;6192569;23;20036;-72
2021/07/24 01:29:20;;;;;;;20.88;9.30;;;20.10;80.10;;;;;;6218580;23;20008;-72
2021/07/24 01:31:45;;;;;;;20.67;9.98;;;20.10;80.30;;;;;;6218058;23;20012;-72
2021/07/24 01:34:11;;;;;;;20.80;9.80;;;20.10;80.20;;;;;;6218690;23;20072;-72
2021/07/24 01:36:37;;;;;;;18.33;9.00;;;20.20;80.20;;;;;;6218747;23;20402;-72
2021/07/24 01:39:03;;;;;;;13.88;8.75;;;20.20;80.30;;;;;;6218234;23;20079;-73
2021/07/24 01:41:29;;;;;;;15.73;9.40;;;20.00;81.00;;;;;;6218544;23;19997;-73
2021/07/24 01:43:55;;;;;;;18.60;8.98;;;20.00;80.70;;;;;;6218458;23;20012;-73
2021/07/24 01:46:21;;;;;;;15.07;9.10;;;20.00;80.80;;;;;;6216887;23;20398;-73
2021/07/24 01:54:48;;;;;;;15.85;9.20;;;20.00;80.10;;;;;;6218737;23;20063;-73
2021/07/24 01:57:15;;;;;;;15.18;8.60;;;20.10;79.40;;;;;;6218279;23;20001;-72
2021/07/24 01:59:45;;;;;;;17.40;9.45;;;20.20;79.40;;;;;;6217108;23;19997;-72
2021/07/24 02:02:14;;;;;;;13.70;8.80;;;20.20;79.30;;;;;;6218131;23;20066;-73
2021/07/24 02:04:50;;;;;;;18.98;8.90;;;20.20;78.80;;;;;;6218355;23;20420;-73
2021/07/24 02:07:19;;;;;;;19.02;8.85;;;20.10;78.60;;;;;;6191793;23;20329;-75
2021/07/24 02:09:45;;;;;;;16.70;8.77;;;20.10;78.70;;;;;;6218328;23;20132;-73
2021/07/24 02:12:11;;;;;;;17.77;9.50;;;20.00;79.20;;;;;;6218278;23;20362;-73
2021/07/24 02:14:38;;;;;;;18.55;9.68;;;20.00;79.70;;;;;;6216502;23;20164;-73
2021/07/24 02:17:04;;;;;;;16.30;9.73;;;20.00;80.20;;;;;;6217863;23;20005;-73
2021/07/24 02:19:32;;;;;;;15.00;8.60;;;19.90;81.00;;;;;;6218524;23;20004;-73
2021/07/24 02:21:58;;;;;;;15.63;9.23;;;19.80;81.20;;;;;;6218111;23;19997;-73
2021/07/24 02:24:24;;;;;;;16.70;9.65;;;19.70;81.60;;;;;;6218067;23;20004;-73
2021/07/24 02:26:50;;;;;;;15.93;9.90;;;19.50;82.10;;;;;;6218477;23;20402;-72
2021/07/24 02:29:16;;;;;;;19.83;10.45;;;19.40;82.70;;;;;;6217465;23;20000;-73
2021/07/24 02:31:42;;;;;;;16.83;9.65;;;19.30;82.60;;;;;;6217420;23;19999;-73
2021/07/24 02:34:07;;;;;;;17.33;10.38;;;19.30;83.50;;;;;;6217600;23;20135;-73
2021/07/24 02:36:33;;;;;;;15.27;9.82;;;19.20;84.00;;;;;;6218073;23;20263;-73
2021/07/24 02:38:59;;;;;;;18.33;10.18;;;19.10;84.80;;;;;;6218389;23;20016;-73
2021/07/24 02:41:24;;;;;;;16.40;9.48;;;19.10;85.20;;;;;;6217974;23;20001;-73
2021/07/24 02:43:53;;;;;;;15.98;9.55;;;19.00;85.40;;;;;;6218367;23;19996;-72
2021/07/24 02:46:21;;;;;;;17.25;9.35;;;19.00;85.40;;;;;;6215967;23;20273;-73
2021/07/24 02:48:47;;;;;;;18.70;10.63;;;18.90;85.50;;;;;;6218282;23;20271;-72
2021/07/24 02:51:16;;;;;;;17.13;10.60;;;18.90;85.50;;;;;;6217641;23;20005;-73
2021/07/24 02:53:42;;;;;;;17.17;10.15;;;18.90;86.40;;;;;;6218258;23;20028;-73
2021/07/24 02:56:13;;;;;;;16.67;9.70;;;18.80;87.40;;;;;;6217770;23;20314;-73
2021/07/24 02:58:39;;;;;;;15.10;9.07;;;18.70;87.90;;;;;;6218077;23;20409;-73
2021/07/24 03:01:08;;;;;;;15.50;9.82;;;18.70;88.20;;;;;;6190361;23;20009;-72
2021/07/24 03:03:35;;;;;;;22.23;10.75;;;18.50;88.40;;;;;;6217835;23;20079;-73
2021/07/24 03:06:01;;;;;;;16.25;9.88;;;18.40;89.40;;;;;;6191527;23;20606;-73
2021/07/24 03:08:26;;;;;;;14.70;9.90;;;18.30;90.20;;;;;;6191860;23;20091;-73
2021/07/24 03:10:52;;;;;;;14.70;9.23;;;18.20;91.10;;;;;;6218073;23;20127;-73
2021/07/24 03:13:18;;;;;;;17.17;9.23;;;18.10;91.10;;;;;;6191290;23;20390;-72
2021/07/24 03:15:43;;;;;;;17.70;10.13;;;18.10;91.00;;;;;;6216287;23;20011;-72
2021/07/24 03:18:09;;;;;;;16.92;9.30;;;18.10;91.10;;;;;;6217518;23;20263;-75
2021/07/24 03:20:34;;;;;;;19.70;9.50;;;18.10;91.40;;;;;;6218106;23;20004;-72
2021/07/24 03:23:01;;;;;;;17.75;10.02;;;18.10;91.70;;;;;;6217835;23;20012;-73
2021/07/24 03:25:27;;;;;;;15.05;8.90;;;18.00;91.60;;;;;;6191888;23;20008;-74
2021/07/24 03:27:54;;;;;;;18.08;10.25;;;18.10;91.10;;;;;;6219866;23;20072;-72
2021/07/24 03:30:20;;;;;;;17.60;9.23;;;18.10;90.90;;;;;;6191848;23;20074;-73
2021/07/24 03:32:48;;;;;;;17.70;9.73;;;18.10;91.10;;;;;;6219872;23;19993;-72
2021/07/24 03:35:14;;;;;;;16.33;9.13;;;18.20;90.70;;;;;;6219049;23;20008;-74
2021/07/24 03:37:40;;;;;;;16.98;9.88;;;18.20;91.10;;;;;;6219968;23;20001;-72
2021/07/24 03:40:06;;;;;;;14.30;9.02;;;18.20;91.40;;;;;;6219691;23;20359;-72
2021/07/24 03:42:31;;;;;;;16.88;9.80;;;18.20;91.10;;;;;;6219228;23;20000;-73
2021/07/24 03:44:57;;;;;;;18.77;9.25;;;18.10;91.60;;;;;;6218562;23;20026;-73
2021/07/24 03:47:23;;;;;;;15.93;9.77;;;18.10;91.60;;;;;;6218980;23;20605;-72
2021/07/24 03:49:48;;;;;;;16.73;9.60;;;18.10;91.80;;;;;;6219640;23;20363;-73
2021/07/24 03:52:14;;;;;;;20.25;9.48;;;18.00;92.60;;;;;;6219501;23;20001;-73
2021/07/24 03:54:40;;;;;;;16.75;10.48;;;17.90;92.50;;;;;;6219634;23;20001;-73
2021/07/24 03:57:05;;;;;;;17.67;10.52;;;17.80;93.10;;;;;;6219356;23;20001;-73
2021/07/24 03:59:31;;;;;;;16.52;9.73;;;17.80;93.50;;;;;;6218233;23;20001;-72
2021/07/24 04:01:58;;;;;;;16.40;10.00;;;17.70;93.30;;;;;;6219214;23;20004;-72
2021/07/24 04:04:27;;;;;;;22.73;10.27;;;17.60;93.70;;;;;;6218901;23;20028;-73
2021/07/24 04:06:54;;;;;;;20.02;10.68;;;17.60;93.90;;;;;;6219146;23;20027;-72
2021/07/24 04:09:20;;;;;;;16.20;9.32;;;17.50;93.90;;;;;;6193017;23;20059;-73
2021/07/24 04:11:46;;;;;;;19.90;9.88;;;17.50;93.70;;;;;;6219459;23;20056;-73
2021/07/24 04:14:14;;;;;;;15.65;9.68;;;17.50;93.80;;;;;;6219342;23;20097;-72
2021/07/24 04:16:39;;;;;;;15.02;9.77;;;17.60;94.10;;;;;;6191954;23;20450;-72
2021/07/24 04:19:05;;;;;;;17.88;10.20;;;17.60;94.20;;;;;;6219085;23;20036;-72
2021/07/24 04:21:31;;;;;;;16.48;9.60;;;17.60;94.00;;;;;;6219036;23;20056;-72
2021/07/24 04:23:57;;;;;;;20.25;10.40;;;17.60;94.20;;;;;;6219368;23;20001;-72
2021/07/24 04:26:24;;;;;;;17.92;10.30;;;17.70;93.80;;;;;;6219093;23;20001;-72
2021/07/24 04:28:50;;;;;;;20.92;10.77;;;17.80;93.40;;;;;;6219477;23;20271;-72
2021/07/24 04:31:16;;;;;;;18.42;10.18;;;17.90;93.50;;;;;;6217537;23;20001;-73
2021/07/24 04:33:42;;;;;;;22.55;12.70;;;17.90;93.30;;;;;;6219048;23;20016;-73
2021/07/24 04:36:12;;;;;;;17.45;10.77;;;17.90;93.40;;;;;;6218878;23;20064;-73
2021/07/24 04:38:38;;;;;;;18.63;11.13;;;17.90;93.60;;;;;;6192897;23;20000;-74
2021/07/24 04:41:04;;;;;;;18.60;10.68;;;17.90;93.70;;;;;;6192768;23;20080;-73
2021/07/24 04:43:29;;;;;;;21.70;12.07;;;17.80;93.60;;;;;;6218872;23;20086;-73
2021/07/24 04:45:55;;;;;;;19.35;11.85;;;17.70;93.60;;;;;;6217349;23;20051;-74
2021/07/24 04:48:21;;;;;;;19.08;11.43;;;17.70;93.10;;;;;;6218969;23;20009;-73
2021/07/24 04:50:50;;;;;;;19.15;11.77;;;17.70;93.50;;;;;;6218853;23;20001;-72
2021/07/24 04:53:22;;;;;;;23.58;11.57;;;17.70;92.70;;;;;;6192639;23;20008;-73
2021/07/24 04:55:48;;;;;;;20.75;12.00;;;17.80;92.80;;;;;;6218934;23;20390;-73
2021/07/24 04:58:14;;;;;;;18.35;11.43;;;17.90;92.10;;;;;;6218852;23;19996;-73
2021/07/24 05:00:47;;;;;;;23.02;10.93;;;18.00;91.90;;;;;;6217460;23;20001;-73
2021/07/24 05:03:13;;;;;;;20.08;11.85;;;18.10;91.70;;;;;;6218630;23;20009;-73
2021/07/24 05:05:40;;;;;;;18.70;11.38;;;18.20;91.20;;;;;;6219094;23;20035;-73
2021/07/24 05:08:08;;;;;;;20.98;11.10;;;18.30;91.70;;;;;;6218730;23;20029;-73
2021/07/24 05:10:34;;;;;;;18.88;10.82;;;18.40;92.10;;;;;;6218872;23;20000;-73
2021/07/24 05:13:00;;;;;;;14.65;10.05;;;18.50;92.10;;;;;;6218612;23;20027;-73
2021/07/24 05:15:26;;;;;;;20.40;11.63;;;18.50;92.50;;;;;;6190530;23;20000;-72
2021/07/24 05:17:51;;;;;;;14.88;9.65;;;18.70;91.50;;;;;;6219086;23;20000;-73
2021/07/24 05:20:17;;;;;;;21.85;10.65;;;18.90;91.50;;;;;;6218498;23;20055;-73
2021/07/24 05:22:43;;;;;;;17.65;10.68;;;19.20;90.60;;;;;;6218954;23;20003;-73
2021/07/24 05:25:09;;;;;;;14.30;9.88;;;19.40;89.80;;;;;;6218498;23;20072;-73
2021/07/24 05:27:35;;;;;;;22.45;10.25;;;19.60;90.30;;;;;;6218649;23;20008;-74
2021/07/24 05:30:04;;;;;;;19.50;10.35;;;20.10;90.20;;;;;;6217461;23;20013;-73
2021/07/24 05:32:30;;;;;;;18.65;10.38;;;20.60;88.00;;;;;;6218797;23;20058;-74
2021/07/24 05:34:56;;;;;;;18.35;10.38;;;20.90;87.40;;;;;;6218676;23;20071;-74
2021/07/24 05:37:21;;;;;;;18.42;9.40;;;21.00;86.20;;;;;;6218266;23;20012;-74
2021/07/24 05:39:47;;;;;;;17.63;10.20;;;21.10;85.50;;;;;;6218399;23;20001;-74
2021/07/24 05:42:12;;;;;;;16.65;9.88;;;21.00;83.60;;;;;;6218492;23;20031;-74
2021/07/24 05:44:38;;;;;;;16.40;9.85;;;20.90;84.30;;;;;;6217188;23;20322;-73
2021/07/24 05:47:04;;;;;;;16.88;10.27;;;20.80;85.20;;;;;;6218342;23;20078;-73
2021/07/24 05:49:30;;;;;;;15.88;9.52;;;20.70;85.80;;;;;;6218239;23;20028;-73
2021/07/24 05:51:56;;;;;;;18.02;10.02;;;20.50;87.80;;;;;;6218636;23;20024;-73
2021/07/24 05:54:22;;;;;;;16.13;10.23;;;20.40;89.40;;;;;;6218421;23;20016;-73
2021/07/24 05:56:49;;;;;;;16.73;9.82;;;20.40;90.30;;;;;;6218309;23;20480;-74
2021/07/24 05:59:15;;;;;;;17.60;10.63;;;20.40;89.80;;;;;;6217717;23;20032;-74
2021/07/24 06:01:41;;;;;;;16.58;10.18;;;20.50;88.70;;;;;;6217742;23;20001;-73
2021/07/24 06:04:08;;;;;;;17.63;9.88;;;20.40;90.70;;;;;;6217895;23;20050;-74
2021/07/24 06:06:34;;;;;;;16.83;10.20;;;20.30;90.90;;;;;;6217964;23;20004;-74
2021/07/24 06:08:59;;;;;;;16.55;9.68;;;20.20;90.80;;;;;;6192151;23;20004;-73
2021/07/24 06:11:25;;;;;;;19.15;10.68;;;20.20;90.60;;;;;;6218003;23;20054;-74
2021/07/24 06:13:51;;;;;;;17.45;10.88;;;20.20;89.70;;;;;;6218449;23;20115;-73
2021/07/24 06:16:17;;;;;;;18.65;11.13;;;20.20;89.30;;;;;;6216634;23;20000;-74
2021/07/24 06:18:42;;;;;;;19.00;10.38;;;20.40;88.90;;;;;;6218483;23;20271;-73
2021/07/24 06:21:17;;;;;;;20.80;11.68;;;20.40;87.60;;;;;;6217928;23;20001;-73
2021/07/24 06:23:44;;;;;;;18.40;10.77;;;20.30;89.90;;;;;;6218359;23;20418;-73
2021/07/24 06:26:10;;;;;;;18.45;11.70;;;20.00;90.10;;;;;;6217771;23;20001;-73
2021/07/24 06:28:38;;;;;;;17.73;11.73;;;19.80;92.70;;;;;;6218041;23;20054;-73
2021/07/24 06:31:04;;;;;;;18.77;12.80;;;19.60;93.50;;;;;;6216487;23;20000;-73
2021/07/24 06:33:32;;;;;;;17.58;12.23;;;19.40;93.90;;;;;;6218043;23;20415;-74
2021/07/24 06:35:59;;;;;;;21.08;12.15;;;19.30;94.70;;;;;;6217912;23;20007;-73
2021/07/24 06:38:26;;;;;;;19.98;11.95;;;19.30;94.90;;;;;;6217702;23;20075;-73
2021/07/24 06:40:52;;;;;;;20.75;12.88;;;19.40;95.10;;;;;;6218019;23;20000;-74
2021/07/24 06:43:18;;;;;;;18.98;11.80;;;19.60;95.10;;;;;;6218168;23;20000;-73
2021/07/24 06:45:43;;;;;;;21.52;12.43;;;19.90;95.40;;;;;;6216225;23;20019;-73
2021/07/24 06:48:22;;;;;;;18.63;12.23;;;20.10;93.40;;;;;;6191712;23;20215;-73
2021/07/24 06:50:48;;;;;;;19.73;9.98;;;20.20;93.30;;;;;;6218116;23;20058;-73
2021/07/24 06:53:13;;;;;;;18.05;10.48;;;20.30;91.10;;;;;;6217406;23;20000;-74
2021/07/24 06:55:39;;;;;;;19.40;11.52;;;20.40;91.80;;;;;;6217985;23;20295;-73
2021/07/24 06:58:05;;;;;;;16.65;9.80;;;20.60;92.60;;;;;;6218049;23;20000;-74
2021/07/24 07:00:31;;;;;;;18.33;9.98;;;20.80;88.30;;;;;;6217955;23;20012;-73
2021/07/24 07:02:59;;;;;;;17.65;10.20;;;21.00;86.70;;;;;;6193952;23;20064;-73
2021/07/24 07:05:28;;;;;;;17.05;10.10;;;21.30;86.20;;;;;;6219428;23;20005;-74
2021/07/24 07:07:54;;;;;;;18.75;9.27;;;21.40;84.90;;;;;;6219850;23;20054;-73
2021/07/24 07:10:20;;;;;;;19.02;10.32;;;21.40;85.50;;;;;;6193220;23;20009;-74
2021/07/24 07:12:47;;;;;;;20.10;10.80;;;21.50;83.00;;;;;;6220084;23;20590;-74
2021/07/24 07:15:16;;;;;;;16.05;10.30;;;21.30;84.10;;;;;;6218278;23;20008;-74
2021/07/24 07:17:42;;;;;;;19.60;10.88;;;21.30;85.80;;;;;;6220145;23;20004;-73
2021/07/24 07:20:09;;;;;;;16.10;9.73;;;21.50;85.70;;;;;;6219555;23;20001;-73
2021/07/24 07:22:35;;;;;;;16.35;9.60;;;21.50;84.10;;;;;;6218485;23;20456;-73
2021/07/24 07:25:01;;;;;;;16.50;10.45;;;21.80;83.20;;;;;;6217269;23;20012;-73
2021/07/24 07:27:26;;;;;;;19.13;9.88;;;21.90;84.50;;;;;;6217368;23;20009;-73
2021/07/24 07:29:52;;;;;;;17.17;10.25;;;22.20;83.30;;;;;;6217644;23;20009;-74
2021/07/24 07:32:18;;;;;;;21.45;11.32;;;22.60;81.30;;;;;;6218614;23;20678;-74
2021/07/24 07:34:46;;;;;;;22.05;10.80;;;22.50;82.60;;;;;;6216905;23;20005;-74
2021/07/24 07:37:11;;;;;;;15.00;8.02;;;22.30;83.20;;;;;;6216698;23;20402;-74
2021/07/24 07:39:37;;;;;;;20.25;8.75;;;21.80;81.80;;;;;;6217407;23;20004;-74
2021/07/24 07:42:03;;;;;;;13.85;8.70;;;21.70;84.10;;;;;;6216723;23;20058;-74
2021/07/24 07:44:29;;;;;;;15.90;8.43;;;21.80;85.90;;;;;;6215589;23;20004;-74
2021/07/24 07:46:56;;;;;;;15.23;7.93;;;22.00;84.80;;;;;;6217484;23;20016;-73
2021/07/24 07:49:22;;;;;;;19.85;10.05;;;22.00;83.90;;;;;;6216816;23;20018;-74
2021/07/24 07:51:47;;;;;;;21.30;9.27;;;22.20;84.30;;;;;;6190615;23;20328;-74
2021/07/24 07:54:13;;;;;;;18.08;9.57;;;22.60;83.00;;;;;;6218344;23;20007;-74
2021/07/24 07:56:39;;;;;;;19.90;9.93;;;22.60;83.20;;;;;;6219698;23;20001;-74
2021/07/24 07:59:04;;;;;;;16.83;10.27;;;22.60;82.90;;;;;;6218654;23;20375;-74
2021/07/24 08:01:30;;;;;;;14.88;9.27;;;22.50;85.30;;;;;;6218268;23;20063;-74
2021/07/24 08:03:56;;;;;;;18.45;9.40;;;22.40;85.60;;;;;;6192717;23;20008;-73
2021/07/24 08:06:22;;;;;;;14.15;8.25;;;22.30;86.60;;;;;;6218738;23;20005;-74
2021/07/24 08:08:47;;;;;;;16.73;8.85;;;22.20;86.10;;;;;;6218840;23;20083;-74
2021/07/24 08:11:16;;;;;;;14.40;8.60;;;22.10;86.20;;;;;;6218268;23;20004;-74
2021/07/24 08:13:42;;;;;;;15.40;9.55;;;22.20;87.40;;;;;;6218684;23;20001;-74
2021/07/24 08:16:17;;;;;;;14.98;9.10;;;22.50;89.50;;;;;;6217725;23;20012;-74
2021/07/24 08:18:43;;;;;;;14.63;9.00;;;22.80;87.50;;;;;;6219260;23;20001;-73
2021/07/24 08:21:09;;;;;;;15.32;8.20;;;22.90;87.10;;;;;;6218690;23;20007;-73
2021/07/24 08:23:35;;;;;;;13.90;8.35;;;23.20;87.80;;;;;;6219475;23;20000;-72
2021/07/24 08:26:01;;;;;;;14.75;8.45;;;23.10;86.60;;;;;;6218410;23;20000;-74
2021/07/24 08:28:27;;;;;;;16.65;7.60;;;22.80;87.50;;;;;;6218665;23;20080;-73
2021/07/24 08:30:54;;;;;;;12.65;7.85;;;22.80;86.60;;;;;;6217989;23;20000;-73
2021/07/24 08:33:20;;;;;;;12.40;7.53;;;22.80;87.30;;;;;;6218627;23;20279;-73
2021/07/24 08:35:46;;;;;;;11.93;8.02;;;22.90;86.90;;;;;;6218502;23;19997;-72
2021/07/24 08:38:11;;;;;;;15.40;8.77;;;22.70;85.60;;;;;;6218952;23;20005;-73
2021/07/24 08:40:38;;;;;;;14.82;8.73;;;22.60;87.20;;;;;;6218383;23;20011;-72
2021/07/24 08:43:05;;;;;;;17.10;8.43;;;22.50;89.30;;;;;;6215960;23;20020;-73
2021/07/24 08:45:31;;;;;;;13.45;8.10;;;22.30;90.60;;;;;;6190941;23;20027;-73
2021/07/24 08:47:59;;;;;;;13.75;7.43;;;22.10;88.30;;;;;;6218478;23;20012;-72
2021/07/24 08:50:25;;;;;;;12.65;6.97;;;21.80;89.10;;;;;;6218736;23;20028;-73
2021/07/24 08:52:54;;;;;;;17.67;8.10;;;21.70;88.90;;;;;;6218932;23;20005;-72
2021/07/24 08:55:23;;;;;;;13.75;7.90;;;21.50;88.30;;;;;;6218529;23;20016;-72
2021/07/24 08:57:54;;;;;;;14.80;7.78;;;21.50;90.00;;;;;;6218651;23;20307;-73
2021/07/24 09:00:22;;;;;;;11.77;7.45;;;21.50;89.40;;;;;;6215983;23;20001;-72
2021/07/24 09:02:52;;;;;;;13.95;7.80;;;21.70;91.20;;;;;;6217223;23;20402;-73
2021/07/24 09:05:18;;;;;;;15.25;8.38;;;21.90;91.20;;;;;;6217202;23;20000;-72
2021/07/24 09:07:51;;;;;;;14.75;7.55;;;21.90;91.70;;;;;;6217661;23;20080;-72
2021/07/24 09:10:18;;;;;;;18.40;8.27;;;22.10;91.30;;;;;;6217248;23;20386;-73
2021/07/24 09:12:46;;;;;;;15.32;7.63;;;22.30;89.40;;;;;;6216955;23;19997;-73
2021/07/24 09:15:14;;;;;;;13.73;7.40;;;22.90;88.20;;;;;;6189518;23;19997;-73
2021/07/24 09:17:40;;;;;;;14.13;7.95;;;23.60;87.30;;;;;;6192499;23;20368;-72
2021/07/24 09:20:08;;;;;;;12.55;6.95;;;24.20;83.20;;;;;;6218346;23;20011;-73
2021/07/24 09:22:34;;;;;;;14.07;7.13;;;24.70;78.70;;;;;;6218527;23;19997;-73
2021/07/24 09:25:14;;;;;;;13.80;7.15;;;24.30;79.20;;;;;;6192061;23;20012;-73
2021/07/24 09:27:42;;;;;;;14.55;7.18;;;24.20;79.30;;;;;;6194604;23;20059;-72
2021/07/24 09:30:27;;;;;;;11.57;6.78;;;24.40;79.80;;;;;;6216664;23;20001;-72
2021/07/24 09:33:15;;;;;;;15.52;7.22;;;24.40;81.40;;;;;;6217982;23;20031;-73
2021/07/24 09:35:45;;;;;;;13.43;7.43;;;24.30;80.40;;;;;;6217596;23;20390;-73
2021/07/24 09:38:11;;;;;;;12.50;7.20;;;24.40;80.80;;;;;;6190717;23;20444;-73
2021/07/24 09:40:38;;;;;;;12.60;7.28;;;24.60;81.80;;;;;;6217247;23;20000;-73
2021/07/24 09:43:24;;;;;;;13.90;7.90;;;24.70;79.40;;;;;;6217861;23;20005;-74
2021/07/24 09:46:07;;;;;;;12.50;7.25;;;24.90;78.70;;;;;;6215798;23;20021;-73
2021/07/24 09:48:34;;;;;;;12.15;7.18;;;25.10;77.60;;;;;;6217151;23;20135;-74
2021/07/24 09:50:59;;;;;;;15.57;7.13;;;25.40;78.20;;;;;;6190529;23;20012;-73
2021/07/24 09:53:36;;;;;;;12.18;6.70;;;25.20;76.00;;;;;;6218471;23;20375;-73
2021/07/24 09:56:02;;;;;;;12.90;7.07;;;25.30;78.30;;;;;;6218437;23;20051;-73
2021/07/24 09:58:28;;;;;;;12.07;6.60;;;25.40;76.10;;;;;;6218297;23;20004;-73
2021/07/24 10:01:08;;;;;;;13.80;7.45;;;26.10;74.50;;;;;;6217088;23;20001;-73
2021/07/24 10:03:36;;;;;;;9.95;6.07;;;27.50;71.70;;;;;;6218245;23;20008;-73
2021/07/24 10:06:13;;;;;;;12.07;6.50;;;27.70;70.20;;;;;;6190728;23;20027;-73
2021/07/24 10:08:48;;;;;;;12.23;6.72;;;28.20;70.60;;;;;;6218146;23;20382;-73
2021/07/24 10:11:15;;;;;;;12.05;6.43;;;27.60;70.70;;;;;;6217891;23;20111;-72
2021/07/24 10:13:45;;;;;;;12.13;6.28;;;27.30;70.70;;;;;;6217364;23;20005;-73
2021/07/24 10:16:11;;;;;;;11.00;5.53;;;27.70;69.90;;;;;;6216190;23;20091;-72
2021/07/24 10:18:38;;;;;;;11.73;6.10;;;27.80;68.70;;;;;;6217716;23;20028;-73
2021/07/24 10:21:04;;;;;;;11.75;5.72;;;27.70;66.10;;;;;;6217722;23;20004;-72
2021/07/24 10:23:30;;;;;;;10.25;5.97;;;27.30;68.30;;;;;;6218006;23;20084;-74
2021/07/24 10:26:17;;;;;;;11.02;6.10;;;27.40;69.40;;;;;;6216987;23;20055;-73
2021/07/24 10:29:00;;;;;;;11.93;5.90;;;27.30;69.50;;;;;;6218250;23;20051;-73
2021/07/24 10:31:52;;;;;;;13.63;6.07;;;27.50;70.50;;;;;;6216385;23;20004;-73
2021/07/24 10:34:28;;;;;;;11.07;6.43;;;27.40;69.40;;;;;;6217479;23;20378;-73
2021/07/24 10:36:56;;;;;;;14.23;6.72;;;26.90;70.30;;;;;;6217776;23;20393;-73
2021/07/24 10:39:23;;;;;;;10.00;5.72;;;27.20;69.70;;;;;;6217779;23;20001;-73
2021/07/24 10:42:08;;;;;;;12.82;5.93;;;28.50;70.00;;;;;;6217970;23;20060;-73
2021/07/24 10:44:42;;;;;;;9.40;5.47;;;30.20;64.70;;;;;;6216310;23;20001;-73
2021/07/24 10:47:09;;;;;;;9.93;5.60;;;30.60;62.50;;;;;;6217317;23;20020;-73
2021/07/24 10:49:35;;;;;;;12.77;6.05;;;29.80;61.30;;;;;;6217609;23;20004;-73
2021/07/24 10:52:08;;;;;;;11.70;6.38;;;28.70;65.60;;;;;;6217844;23;20005;-73
2021/07/24 10:54:59;;;;;;;9.82;6.40;;;28.00;66.70;;;;;;6217954;23;20004;-73
2021/07/24 10:57:54;;;;;;;12.65;6.38;;;26.00;69.10;;;;;;6217205;23;20004;-72
2021/07/24 11:00:20;;;;;;;12.65;6.53;;;25.00;73.10;;;;;;6209657;23;20004;-73
2021/07/24 11:02:50;;;;;;;12.13;6.38;;;24.30;73.10;;;;;;6217930;23;20043;-73
2021/07/24 11:05:23;;;;;;;14.02;6.45;;;23.90;73.90;;;;;;6217744;23;20027;-73
2021/07/24 11:07:49;;;;;;;9.75;6.38;;;23.50;75.40;;;;;;6218006;23;20346;-72
2021/07/24 11:10:15;;;;;;;11.25;6.70;;;23.30;75.80;;;;;;6217520;23;20005;-72
2021/07/24 11:12:41;;;;;;;11.63;6.45;;;23.20;76.90;;;;;;6218009;23;20005;-72
2021/07/24 11:15:11;;;;;;;12.23;6.53;;;23.10;77.90;;;;;;6216010;23;20005;-72
2021/07/24 11:17:37;;;;;;;10.82;6.28;;;22.90;78.30;;;;;;6217754;23;20072;-73
2021/07/24 11:20:05;;;;;;;11.85;7.03;;;22.80;78.90;;;;;;6218019;23;20055;-73
2021/07/24 11:22:32;;;;;;;11.60;6.85;;;22.70;80.10;;;;;;6217871;23;20020;-72
2021/07/24 11:24:58;;;;;;;11.77;6.47;;;22.70;80.90;;;;;;6218014;23;20001;-72
2021/07/24 11:27:26;;;;;;;11.50;6.68;;;22.90;80.50;;;;;;6217589;23;20009;-72
2021/07/24 11:30:08;;;;;;;11.70;6.05;;;23.00;81.60;;;;;;6216539;23;20011;-73
2021/07/24 11:32:39;;;;;;;11.52;6.05;;;23.30;81.60;;;;;;6217983;23;20071;-73
2021/07/24 11:35:13;;;;;;;13.10;5.95;;;24.00;82.40;;;;;;6217566;23;20000;-72
2021/07/24 11:37:47;;;;;;;10.65;6.38;;;25.00;82.90;;;;;;6217895;23;20025;-72
2021/07/24 11:40:20;;;;;;;13.88;6.57;;;26.30;76.30;;;;;;6217724;23;20004;-72
2021/07/24 11:43:15;;;;;;;10.65;6.00;;;26.80;73.20;;;;;;6217643;23;20003;-72
2021/07/24 11:45:44;;;;;;;11.75;6.60;;;27.50;72.30;;;;;;6202784;23;20021;-73
2021/07/24 11:48:09;;;;;;;14.60;5.93;;;28.70;70.00;;;;;;6219166;23;20039;-73
2021/07/24 11:50:36;;;;;;;13.57;6.25;;;28.30;68.40;;;;;;6219825;23;20005;-73
2021/07/24 11:53:02;;;;;;;11.55;6.05;;;28.10;69.50;;;;;;6219618;23;20005;-73
2021/07/24 11:55:36;;;;;;;10.02;6.50;;;27.70;69.80;;;;;;6218998;23;20028;-73
2021/07/24 11:58:10;;;;;;;12.98;6.25;;;27.60;70.70;;;;;;6219437;23;20036;-73
2021/07/24 12:00:38;;;;;;;13.02;6.75;;;26.80;71.30;;;;;;6217865;23;19997;-72
2021/07/24 12:03:16;;;;;;;17.33;7.00;;;26.50;73.70;;;;;;6193216;23;20032;-73
2021/07/24 12:05:42;;;;;;;10.38;6.82;;;27.00;73.20;;;;;;6211731;23;20005;-73
2021/07/24 12:08:08;;;;;;;14.38;6.95;;;27.50;73.20;;;;;;6218093;23;20252;-73
2021/07/24 12:10:46;;;;;;;13.00;6.78;;;27.90;72.30;;;;;;6219619;23;20000;-73
2021/07/24 12:13:17;;;;;;;11.23;6.65;;;28.00;71.80;;;;;;6219790;23;20024;-72
2021/07/24 12:15:55;;;;;;;13.55;7.35;;;28.00;72.70;;;;;;6191831;23;20035;-73
2021/07/24 12:18:21;;;;;;;11.02;6.72;;;28.10;72.20;;;;;;6219694;23;20271;-73
2021/07/24 12:20:49;;;;;;;12.35;6.85;;;28.70;71.80;;;;;;6219448;23;20098;-74
2021/07/24 12:23:24;;;;;;;13.32;6.90;;;29.00;70.30;;;;;;6192974;23;20304;-73
2021/07/24 12:26:22;;;;;;;11.13;6.75;;;29.40;70.00;;;;;;6219394;23;20000;-73
2021/07/24 12:28:48;;;;;;;9.25;6.38;;;29.40;68.90;;;;;;6219660;23;20310;-73
2021/07/24 12:31:33;;;;;;;11.98;6.32;;;29.30;70.50;;;;;;6218040;23;20001;-72
2021/07/24 12:34:13;;;;;;;11.57;6.60;;;29.40;68.40;;;;;;6219492;23;20005;-72
2021/07/24 12:36:57;;;;;;;11.30;6.55;;;28.60;67.80;;;;;;6219638;23;20008;-73
2021/07/24 12:39:24;;;;;;;11.63;6.60;;;27.50;71.40;;;;;;6219613;23;20032;-73
2021/07/24 12:42:07;;;;;;;10.38;6.10;;;28.10;70.50;;;;;;6219063;23;20340;-73
2021/07/24 12:44:51;;;;;;;11.57;6.47;;;28.30;69.40;;;;;;6217778;23;20525;-73